createdAt,value
2022-08-05T00:02:21.327Z,83.94
2022-08-05T00:04:48.024Z,84.15
2022-08-05T00:07:58.884Z,84.28
2022-08-05T00:10:10.353Z,84.36
2022-08-05T00:12:56.178Z,83.83
2022-08-05T00:15:56.384Z,83.80
2022-08-05T00:18:21.712Z,84.13
2022-08-05T00:20:50.441Z,84.06
2022-08-05T00:23:17.460Z,84.24
2022-08-05T00:26:04.287Z,84.08
2022-08-05T00:28:30.966Z,84.13
2022-08-05T00:31:04.112Z,84.46
2022-08-05T00:34:53.818Z,84.56
2022-08-05T00:37:11.166Z,84.26
2022-08-05T00:39:05.332Z,84.26
2022-08-05T00:41:52.085Z,83.91
2022-08-05T00:44:30.886Z,83.90
2022-08-05T00:47:02.035Z,83.69
2022-08-05T00:49:32.333Z,83.98
2022-08-05T00:51:59.984Z,84.16
2022-08-05T00:54:28.132Z,84.35
2022-08-05T00:56:57.062Z,84.59
2022-08-05T00:59:23.799Z,85.06
2022-08-05T01:01:51.174Z,84.80
2022-08-05T01:04:20.150Z,84.68
2022-08-05T01:06:53.718Z,84.96
2022-08-05T01:09:22.288Z,85.00
2022-08-05T01:11:52.088Z,84.97
2022-08-05T01:14:37.435Z,85.38
2022-08-05T01:17:10.890Z,85.63
2022-08-05T01:20:03.699Z,85.86
2022-08-05T01:22:51.099Z,86.26
2022-08-05T01:25:54.920Z,86.41
2022-08-05T01:28:57.078Z,86.38
2022-08-05T01:31:44.856Z,86.51
2022-08-05T01:34:30.958Z,86.92
2022-08-05T01:37:24.475Z,86.97
2022-08-05T01:39:58.937Z,86.52
2022-08-05T01:42:27.923Z,86.14
2022-08-05T01:44:56.854Z,86.24
2022-08-05T01:47:38.706Z,86.74
2022-08-05T01:50:15.363Z,86.57
2022-08-05T01:52:50.163Z,86.69
2022-08-05T01:55:20.694Z,86.96
2022-08-05T01:58:11.071Z,87.04
2022-08-05T02:00:38.470Z,87.27
2022-08-05T02:03:16.396Z,87.62
2022-08-05T02:05:59.719Z,87.99
2022-08-05T02:08:30.637Z,87.70
2022-08-05T02:11:05.246Z,88.16
2022-08-05T02:13:53.195Z,88.49
2022-08-05T02:16:41.896Z,88.63
2022-08-05T02:19:35.723Z,88.30
2022-08-05T02:22:25.893Z,88.58
2022-08-05T02:25:01.946Z,88.48
2022-08-05T02:27:58.233Z,88.40
2022-08-05T02:30:20.121Z,88.18
2022-08-05T02:32:51.232Z,87.93
2022-08-05T02:35:27.636Z,88.37
2022-08-05T02:37:56.884Z,88.39
2022-08-05T02:40:27.521Z,88.71
2022-08-05T02:42:56.451Z,88.88
2022-08-05T02:45:25.614Z,88.74
2022-08-05T02:48:07.567Z,88.66
2022-08-05T02:50:43.935Z,88.27
2022-08-05T02:53:18.788Z,88.31
2022-08-05T02:55:54.507Z,87.66
2022-08-05T02:58:23.135Z,87.93
2022-08-05T03:00:56.684Z,87.83
2022-08-05T03:03:24.497Z,87.90
2022-08-05T03:06:55.755Z,88.16
2022-08-05T03:08:42.788Z,88.00
2022-08-05T03:11:54.363Z,87.74
2022-08-05T03:14:07.883Z,87.84
2022-08-05T03:16:35.655Z,87.80
2022-08-05T03:19:16.870Z,87.96
2022-08-05T03:21:49.633Z,88.20
2022-08-05T03:24:29.672Z,88.50
2022-08-05T03:27:01.042Z,88.40
2022-08-05T03:29:45.959Z,88.27
2022-08-05T03:32:16.651Z,88.24
2022-08-05T03:34:51.186Z,88.25
2022-08-05T03:37:20.152Z,88.64
2022-08-05T03:40:00.874Z,88.55
2022-08-05T03:42:32.372Z,88.49
2022-08-05T03:45:01.762Z,88.16
2022-08-05T03:47:46.760Z,88.32
2022-08-05T03:50:15.939Z,89.13
2022-08-05T03:55:51.169Z,89.23
2022-08-05T03:56:10.444Z,89.12
2022-08-05T03:58:46.931Z,89.17
2022-08-05T04:01:20.978Z,88.78
2022-08-05T04:04:09.321Z,88.78
2022-08-05T04:06:37.430Z,89.29
2022-08-05T04:09:06.087Z,88.54
2022-08-05T04:11:50.674Z,88.59
2022-08-05T04:14:19.783Z,88.53
2022-08-05T04:16:58.551Z,88.80
2022-08-05T04:19:25.400Z,88.14
2022-08-05T04:22:09.301Z,88.56
2022-08-05T04:24:44.706Z,88.31
2022-08-05T04:27:19.463Z,88.32
2022-08-05T04:30:07.378Z,87.92
2022-08-05T04:32:36.399Z,88.08
2022-08-05T04:35:03.520Z,87.94
2022-08-05T04:38:02.853Z,87.76
2022-08-05T04:40:19.779Z,87.73
2022-08-05T04:42:46.517Z,87.83
2022-08-05T04:45:14.197Z,87.92
2022-08-05T04:48:05.843Z,87.88
2022-08-05T04:50:34.461Z,87.99
2022-08-05T04:53:04.122Z,88.18
2022-08-05T04:56:00.048Z,88.51
2022-08-05T04:58:21.520Z,88.31
2022-08-05T05:00:50.542Z,88.62
2022-08-05T05:03:18.803Z,88.22
2022-08-05T05:06:36.507Z,88.05
2022-08-05T05:08:36.663Z,88.39
2022-08-05T05:11:10.394Z,88.43
2022-08-05T05:13:42.950Z,88.10
2022-08-05T05:16:10.768Z,88.05
2022-08-05T05:18:38.422Z,88.03
2022-08-05T05:21:05.441Z,87.72
2022-08-05T05:23:39.523Z,87.04
2022-08-05T05:26:19.478Z,86.96
2022-08-05T05:28:55.663Z,86.40
2022-08-05T05:31:23.941Z,86.53
2022-08-05T05:33:59.473Z,86.81
2022-08-05T05:36:28.708Z,86.95
2022-08-05T05:38:57.304Z,87.34
2022-08-05T05:41:24.187Z,86.45
2022-08-05T05:43:56.937Z,86.26
2022-08-05T05:46:25.343Z,85.92
2022-08-05T05:48:51.998Z,85.42
2022-08-05T05:51:23.917Z,85.02
2022-08-05T05:53:57.775Z,85.09
2022-08-05T05:56:32.781Z,84.82
2022-08-05T05:59:06.745Z,84.46
2022-08-05T06:01:37.029Z,84.83
2022-08-05T06:04:05.913Z,84.86
2022-08-05T06:06:34.850Z,85.28
2022-08-05T06:09:03.952Z,84.48
2022-08-05T06:11:31.814Z,84.08
2022-08-05T06:14:00.400Z,84.28
2022-08-05T06:16:32.739Z,84.77
2022-08-05T06:19:05.750Z,84.73
2022-08-05T06:21:37.471Z,84.20
2022-08-05T06:24:07.736Z,83.60
2022-08-05T06:26:38.315Z,83.40
2022-08-05T06:29:06.427Z,82.90
2022-08-05T06:31:51.620Z,82.62
2022-08-05T06:34:20.046Z,82.12
2022-08-05T06:36:57.349Z,82.29
2022-08-05T06:39:27.800Z,82.29
2022-08-05T06:41:59.283Z,81.21
2022-08-05T06:44:26.135Z,80.55
2022-08-05T06:46:54.453Z,79.53
2022-08-05T06:49:59.853Z,78.28
2022-08-05T06:52:08.144Z,78.44
2022-08-05T06:54:54.926Z,77.70
2022-08-05T06:58:02.236Z,77.70
2022-08-05T07:00:09.737Z,77.25
2022-08-05T07:02:44.130Z,77.20
2022-08-05T07:05:14.471Z,76.52
2022-08-05T07:07:48.938Z,76.51
2022-08-05T07:10:16.517Z,76.00
2022-08-05T07:13:02.922Z,75.33
2022-08-05T07:16:01.141Z,74.19
2022-08-05T07:18:30.333Z,75.17
2022-08-05T07:20:57.645Z,74.65
2022-08-05T07:23:26.014Z,74.65
2022-08-05T07:25:55.159Z,74.56
2022-08-05T07:28:23.268Z,74.44
2022-08-05T07:30:52.821Z,74.94
2022-08-05T07:33:35.034Z,74.40
2022-08-05T07:36:20.099Z,73.82
2022-08-05T07:38:47.846Z,74.46
2022-08-05T07:42:07.901Z,74.48
2022-08-05T07:44:14.166Z,72.65
2022-08-05T07:46:48.269Z,72.49
2022-08-05T07:49:15.398Z,72.02
2022-08-05T07:51:53.010Z,71.34
2022-08-05T07:54:31.305Z,71.89
2022-08-05T07:57:13.812Z,72.40
2022-08-05T07:59:48.753Z,70.40
2022-08-05T08:02:17.572Z,70.08
2022-08-05T08:04:49.683Z,69.93
2022-08-05T08:07:22.771Z,70.64
2022-08-05T08:09:52.495Z,70.66
2022-08-05T08:12:33.507Z,70.43
2022-08-05T08:15:15.584Z,68.88
2022-08-05T08:17:50.592Z,68.53
2022-08-05T08:21:00.235Z,68.30
2022-08-05T08:23:59.714Z,70.42
2022-08-05T08:26:00.457Z,70.46
2022-08-05T08:28:36.746Z,71.64
2022-08-05T08:31:06.756Z,70.46
2022-08-05T08:33:38.130Z,67.83
2022-08-05T08:36:38.830Z,67.40
2022-08-05T08:38:55.614Z,68.60
2022-08-05T08:41:26.175Z,70.41
2022-08-05T08:45:18.433Z,69.44
2022-08-05T08:47:03.524Z,68.28
2022-08-05T08:50:22.951Z,67.19
2022-08-05T08:52:38.898Z,66.16
2022-08-05T08:55:13.219Z,66.70
2022-08-05T08:57:42.341Z,66.42
2022-08-05T09:00:25.303Z,67.41
2022-08-05T09:02:54.388Z,68.30
2022-08-05T09:05:38.863Z,69.04
2022-08-05T09:08:09.861Z,67.67
2022-08-05T09:10:36.889Z,66.90
2022-08-05T09:13:07.278Z,66.60
2022-08-05T09:15:37.127Z,65.28
2022-08-05T09:18:07.371Z,65.97
2022-08-05T09:20:37.727Z,64.53
2022-08-05T09:23:19.850Z,63.79
2022-08-05T09:26:03.367Z,65.35
2022-08-05T09:28:34.952Z,63.57
2022-08-05T09:31:43.353Z,63.71
2022-08-05T09:34:03.734Z,63.65
2022-08-05T09:36:56.156Z,61.99
2022-08-05T09:39:41.200Z,64.59
2022-08-05T09:42:20.261Z,62.48
2022-08-05T09:44:52.292Z,63.80
2022-08-05T09:47:21.894Z,63.74
2022-08-05T09:50:01.566Z,64.44
2022-08-05T09:52:34.882Z,61.31
2022-08-05T09:55:06.260Z,61.97
2022-08-05T09:57:54.582Z,63.21
2022-08-05T10:00:25.877Z,61.99
2022-08-05T10:02:58.462Z,61.25
2022-08-05T10:05:28.409Z,59.94
2022-08-05T10:08:35.030Z,59.88
2022-08-05T10:10:50.384Z,60.42
2022-08-05T10:13:31.532Z,61.38
2022-08-05T10:16:37.742Z,58.99
2022-08-05T10:19:10.111Z,60.14
2022-08-05T10:21:40.339Z,61.03
2022-08-05T10:24:13.640Z,60.63
2022-08-05T10:26:51.810Z,60.28
2022-08-05T10:29:23.410Z,60.22
2022-08-05T10:32:54.588Z,60.15
2022-08-05T10:34:57.599Z,59.17
2022-08-05T10:37:44.819Z,60.02
2022-08-05T10:40:22.420Z,58.25
2022-08-05T10:43:01.949Z,59.58
2022-08-05T10:45:41.622Z,60.56
2022-08-05T10:48:52.728Z,59.98
2022-08-05T10:51:29.266Z,56.98
2022-08-05T10:54:01.957Z,58.02
2022-08-05T10:56:58.539Z,55.19
2022-08-05T11:00:03.644Z,57.53
2022-08-05T11:02:34.632Z,56.73
2022-08-05T11:05:10.682Z,55.45
2022-08-05T11:08:12.776Z,54.01
2022-08-05T11:10:50.414Z,54.06
2022-08-05T11:13:57.618Z,53.67
2022-08-05T11:16:47.912Z,55.26
2022-08-05T11:20:17.105Z,55.40
2022-08-05T11:22:50.102Z,53.49
2022-08-05T11:26:09.904Z,54.73
2022-08-05T11:28:43.147Z,53.25
2022-08-05T11:31:58.789Z,50.81
2022-08-05T11:34:08.423Z,50.80
2022-08-05T11:36:52.779Z,49.96
2022-08-05T11:40:03.248Z,49.30
2022-08-05T11:42:32.783Z,52.07
2022-08-05T11:45:06.147Z,49.88
2022-08-05T11:47:54.540Z,49.03
2022-08-05T11:50:21.888Z,49.06
2022-08-05T11:52:51.108Z,49.34
2022-08-05T11:55:19.947Z,50.04
2022-08-05T11:58:10.088Z,49.23
2022-08-05T12:00:38.143Z,50.87
2022-08-05T12:03:23.819Z,51.35
2022-08-05T12:06:05.989Z,51.44
2022-08-05T12:08:39.536Z,50.10
2022-08-05T12:11:22.048Z,51.68
2022-08-05T12:14:06.067Z,49.81
2022-08-05T12:16:45.137Z,50.04
2022-08-05T12:20:16.666Z,50.86
2022-08-05T12:22:01.118Z,51.31
2022-08-05T12:24:28.148Z,49.67
2022-08-05T12:26:56.996Z,50.98
2022-08-05T12:29:29.069Z,52.85
2022-08-05T12:32:07.458Z,50.93
2022-08-05T12:34:37.766Z,52.34
2022-08-05T12:37:17.222Z,50.98
2022-08-05T12:39:45.196Z,50.43
2022-08-05T12:42:19.830Z,49.77
2022-08-05T12:44:47.368Z,49.57
2022-08-05T12:47:26.771Z,50.09
2022-08-05T12:50:04.560Z,50.71
2022-08-05T12:52:39.578Z,49.99
2022-08-05T12:55:22.996Z,49.84
2022-08-05T12:58:48.355Z,52.81
2022-08-05T13:02:02.930Z,51.16
2022-08-05T13:03:32.235Z,52.45
2022-08-05T13:06:01.033Z,53.75
2022-08-05T13:08:32.220Z,49.63
2022-08-05T13:11:02.285Z,50.43
2022-08-05T13:14:05.367Z,51.77
2022-08-05T13:16:17.382Z,50.25
2022-08-05T13:19:02.348Z,49.67
2022-08-05T13:21:38.148Z,49.62
2022-08-05T13:24:15.327Z,49.93
2022-08-05T13:27:02.042Z,51.09
2022-08-05T13:29:37.358Z,50.68
2022-08-05T13:32:05.627Z,51.89
2022-08-05T13:34:32.938Z,50.69
2022-08-05T13:37:00.464Z,50.61
2022-08-05T13:40:16.278Z,52.50
2022-08-05T13:42:15.383Z,52.10
2022-08-05T13:44:45.485Z,53.32
2022-08-05T13:47:35.154Z,50.35
2022-08-05T13:50:06.391Z,51.63
2022-08-05T13:52:35.936Z,52.64
2022-08-05T13:55:07.939Z,51.86
2022-08-05T13:57:51.645Z,51.51
2022-08-05T14:00:26.794Z,49.99
2022-08-05T14:02:57.729Z,52.04
2022-08-05T14:05:29.430Z,51.94
2022-08-05T14:08:21.224Z,49.87
2022-08-05T14:11:03.060Z,49.74
2022-08-05T14:13:41.273Z,49.75
2022-08-05T14:16:11.785Z,49.56
2022-08-05T14:18:43.793Z,50.42
2022-08-05T14:22:07.411Z,50.54
2022-08-05T14:23:57.254Z,52.00
2022-08-05T14:26:38.830Z,51.73
2022-08-05T14:29:16.206Z,52.87
2022-08-05T14:32:03.641Z,51.45
2022-08-05T14:34:35.419Z,51.19
2022-08-05T14:37:05.835Z,52.18
2022-08-05T14:39:49.934Z,53.40
2022-08-05T14:42:21.773Z,52.38
2022-08-05T14:44:49.784Z,51.40
2022-08-05T14:47:16.762Z,50.94
2022-08-05T14:50:18.214Z,51.18
2022-08-05T14:52:53.097Z,50.31
2022-08-05T14:55:24.466Z,51.86
2022-08-05T14:57:56.366Z,50.20
2022-08-05T15:00:28.123Z,51.03
2022-08-05T15:02:56.301Z,50.11
2022-08-05T15:05:29.843Z,50.73
2022-08-05T15:08:10.812Z,50.13
2022-08-05T15:10:39.011Z,49.82
2022-08-05T15:13:06.275Z,49.14
2022-08-05T15:15:53.960Z,50.45
2022-08-05T15:18:23.448Z,51.56
2022-08-05T15:20:50.195Z,51.80
2022-08-05T15:23:17.994Z,53.04
2022-08-05T15:25:51.916Z,51.27
2022-08-05T15:28:19.806Z,51.55
2022-08-05T15:30:53.825Z,52.55
2022-08-05T15:34:04.030Z,51.32
2022-08-05T15:36:16.681Z,52.40
2022-08-05T15:38:45.074Z,52.11
2022-08-05T15:41:22.083Z,51.57
2022-08-05T15:43:51.522Z,50.91
2022-08-05T15:46:20.656Z,50.61
2022-08-05T15:48:52.450Z,51.33
2022-08-05T15:52:13.375Z,52.09
2022-08-05T15:54:15.765Z,51.95
2022-08-05T15:56:42.671Z,51.99
2022-08-05T15:59:21.618Z,50.88
2022-08-05T16:01:53.005Z,52.08
2022-08-05T16:04:20.888Z,52.43
2022-08-05T16:06:53.196Z,52.87
2022-08-05T16:09:22.108Z,52.13
2022-08-05T16:11:52.816Z,53.14
2022-08-05T16:14:20.247Z,55.10
2022-08-05T16:16:47.258Z,55.89
2022-08-05T16:19:25.450Z,57.18
2022-08-05T16:22:03.012Z,55.49
2022-08-05T16:24:41.507Z,56.08
2022-08-05T16:27:17.758Z,57.19
2022-08-05T16:29:50.340Z,56.93
2022-08-05T16:32:28.316Z,57.14
2022-08-05T16:34:55.689Z,57.22
2022-08-05T16:38:15.362Z,57.39
2022-08-05T16:40:24.906Z,57.53
2022-08-05T16:42:55.192Z,57.79
2022-08-05T16:46:06.100Z,57.73
2022-08-05T16:48:10.245Z,58.06
2022-08-05T16:50:37.367Z,58.41
2022-08-05T16:53:12.757Z,58.03
2022-08-05T16:55:50.107Z,57.69
2022-08-05T16:58:19.616Z,57.87
2022-08-05T17:00:49.562Z,58.74
2022-08-05T17:03:20.599Z,59.05
2022-08-05T17:05:54.096Z,59.53
2022-08-05T17:08:35.887Z,59.19
2022-08-05T17:11:12.705Z,59.57
2022-08-05T17:13:43.776Z,59.02
2022-08-05T17:16:30.087Z,58.42
2022-08-05T17:18:57.358Z,57.58
2022-08-05T17:21:24.658Z,57.83
2022-08-05T17:24:05.071Z,57.50
2022-08-05T17:26:39.270Z,58.05
2022-08-05T17:29:09.816Z,58.31
2022-08-05T17:31:56.679Z,58.91
2022-08-05T17:34:30.174Z,57.73
2022-08-05T17:37:00.214Z,59.27
2022-08-05T17:39:34.239Z,58.62
2022-08-05T17:42:18.861Z,59.02
2022-08-05T17:44:50.450Z,59.09
2022-08-05T17:47:22.923Z,59.01
2022-08-05T17:50:03.706Z,59.12
2022-08-05T17:52:52.532Z,59.20
2022-08-05T17:55:22.568Z,59.12
2022-08-05T17:57:54.238Z,60.14
2022-08-05T18:00:20.953Z,59.54
2022-08-05T18:02:55.302Z,59.24
2022-08-05T18:05:22.208Z,59.31
2022-08-05T18:07:48.941Z,59.33
2022-08-05T18:10:21.195Z,59.46
2022-08-05T18:12:49.094Z,59.97
2022-08-05T18:15:15.807Z,59.68
2022-08-05T18:18:01.076Z,59.94
2022-08-05T18:20:31.984Z,60.07
2022-08-05T18:23:00.548Z,60.54
2022-08-05T18:25:35.862Z,60.94
2022-08-05T18:28:05.190Z,59.98
2022-08-05T18:30:33.190Z,59.68
2022-08-05T18:33:01.309Z,60.03
2022-08-05T18:36:00.818Z,60.64
2022-08-05T18:38:16.518Z,60.40
2022-08-05T18:41:59.289Z,61.04
2022-08-05T18:43:38.258Z,61.01
2022-08-05T18:46:09.698Z,61.20
2022-08-05T18:48:41.695Z,60.76
2022-08-05T18:52:06.505Z,60.75
2022-08-05T18:54:14.400Z,60.87
2022-08-05T18:56:41.911Z,60.47
2022-08-05T18:59:44.438Z,60.70
2022-08-05T19:02:04.883Z,60.48
2022-08-05T19:05:01.496Z,60.78
2022-08-05T19:07:25.824Z,60.54
2022-08-05T19:09:57.096Z,60.58
2022-08-05T19:12:25.756Z,60.83
2022-08-05T19:15:00.522Z,60.73
2022-08-05T19:17:59.059Z,61.14
2022-08-05T19:20:16.093Z,61.60
2022-08-05T19:22:44.600Z,61.88
2022-08-05T19:25:21.553Z,61.61
2022-08-05T19:27:56.476Z,60.75
2022-08-05T19:30:23.184Z,60.84
2022-08-05T19:32:50.552Z,60.87
2022-08-05T19:35:17.599Z,60.57
2022-08-05T19:38:06.199Z,60.23
2022-08-05T19:40:34.766Z,60.05
2022-08-05T19:43:05.513Z,60.39
2022-08-05T19:45:36.841Z,59.73
2022-08-05T19:48:05.383Z,60.30
2022-08-05T19:50:32.722Z,60.35
2022-08-05T19:53:10.422Z,60.83
2022-08-05T19:56:15.024Z,60.61
2022-08-05T19:58:29.380Z,61.22
2022-08-05T20:00:56.905Z,60.95
2022-08-05T20:03:25.367Z,60.82
2022-08-05T20:05:56.632Z,61.14
2022-08-05T20:08:24.824Z,60.76
2022-08-05T20:10:52.303Z,61.04
2022-08-05T20:13:30.068Z,60.69
2022-08-05T20:16:06.948Z,61.02
2022-08-05T20:18:36.112Z,61.34
2022-08-05T20:21:05.265Z,61.28
2022-08-05T20:23:39.750Z,60.99
2022-08-05T20:26:17.843Z,60.78
2022-08-05T20:28:50.511Z,60.60
2022-08-05T20:31:21.588Z,60.80
2022-08-05T20:33:50.617Z,61.11
2022-08-05T20:36:18.216Z,61.01
2022-08-05T20:38:53.329Z,61.13
2022-08-05T20:41:23.983Z,61.48
2022-08-05T20:44:00.400Z,61.63
2022-08-05T20:46:31.341Z,62.26
2022-08-05T20:48:58.442Z,62.63
2022-08-05T20:51:25.170Z,62.74
2022-08-05T20:53:56.860Z,63.68
2022-08-05T20:56:28.072Z,64.45
2022-08-05T20:58:59.944Z,64.66
2022-08-05T21:01:39.067Z,64.85
2022-08-05T21:04:10.483Z,65.09
2022-08-05T21:06:45.325Z,64.78
2022-08-05T21:09:14.392Z,65.80
2022-08-05T21:12:10.242Z,65.41
2022-08-05T21:14:29.518Z,65.49
2022-08-05T21:17:01.621Z,65.34
2022-08-05T21:19:29.789Z,65.59
2022-08-05T21:22:14.712Z,65.68
2022-08-05T21:24:44.517Z,64.96
2022-08-05T21:27:15.921Z,65.43
2022-08-05T21:29:43.388Z,64.62
2022-08-05T21:32:17.214Z,64.81
2022-08-05T21:35:08.166Z,64.43
2022-08-05T21:37:33.719Z,64.99
2022-08-05T21:40:05.821Z,64.31
2022-08-05T21:42:44.277Z,63.85
2022-08-05T21:45:11.823Z,62.88
2022-08-05T21:47:56.572Z,62.30
2022-08-05T21:50:26.503Z,61.73
2022-08-05T21:53:04.359Z,61.33
2022-08-05T21:56:01.497Z,60.31
2022-08-05T21:58:20.225Z,59.83
2022-08-05T22:00:51.682Z,58.54
2022-08-05T22:03:18.600Z,58.39
2022-08-05T22:06:06.356Z,57.25
2022-08-05T22:08:35.257Z,57.33
2022-08-05T22:11:02.464Z,57.99
2022-08-05T22:14:33.030Z,58.96
2022-08-05T22:16:39.449Z,60.31
2022-08-05T22:20:01.660Z,60.70
2022-08-05T22:21:53.551Z,61.88
2022-08-05T22:24:52.492Z,61.81
2022-08-05T22:28:05.061Z,62.26
2022-08-05T22:30:44.302Z,62.39
2022-08-05T22:33:56.668Z,62.10
2022-08-05T22:36:11.354Z,62.98
2022-08-05T22:38:42.642Z,63.20
2022-08-05T22:41:10.256Z,63.80
2022-08-05T22:43:38.189Z,63.58
2022-08-05T22:46:13.285Z,63.73
2022-08-05T22:48:41.849Z,63.89
2022-08-05T22:51:16.064Z,64.07
2022-08-05T22:53:50.391Z,64.06
2022-08-05T22:56:17.895Z,64.19
2022-08-05T22:58:58.551Z,63.82
2022-08-05T23:01:50.824Z,63.81
2022-08-05T23:04:13.795Z,63.99
2022-08-05T23:06:41.239Z,64.30
2022-08-05T23:09:14.634Z,64.77
2022-08-05T23:11:54.827Z,65.09
2022-08-05T23:14:22.741Z,65.38
2022-08-05T23:17:24.558Z,65.57
2022-08-05T23:20:03.444Z,65.98
2022-08-05T23:22:30.871Z,65.99
2022-08-05T23:24:57.709Z,66.66
2022-08-05T23:27:31.239Z,66.94
2022-08-05T23:30:10.772Z,68.12
2022-08-05T23:32:37.811Z,70.32
2022-08-05T23:35:11.845Z,69.67
2022-08-05T23:37:38.532Z,69.51
2022-08-05T23:40:07.829Z,70.06
2022-08-05T23:42:37.386Z,70.88
2022-08-05T23:45:13.830Z,71.38
2022-08-05T23:47:47.905Z,72.38
2022-08-05T23:50:15.279Z,72.71
2022-08-05T23:52:50.091Z,72.52
2022-08-05T23:55:19.112Z,73.58
2022-08-05T23:57:48.964Z,74.42
